sensor_id;sensor_type;location;lat;lon;timestamp;pressure;altitude;pressure_sealevel;temperature;humidity
19286;BME280;9776;50.798;6.430;2022-12-07T00:01:47;100395.47;;;6.12;75.43
19286;BME280;9776;50.798;6.430;2022-12-07T00:04:16;100387.38;;;6.15;75.44
19286;BME280;9776;50.798;6.430;2022-12-07T00:06:45;100387.88;;;6.20;75.33
19286;BME280;9776;50.798;6.430;2022-12-07T00:09:13;100391.78;;;6.25;75.46
19286;BME280;9776;50.798;6.430;2022-12-07T00:11:42;100380.22;;;6.28;75.18
19286;BME280;9776;50.798;6.430;2022-12-07T00:14:11;100386.06;;;6.32;75.23
19286;BME280;9776;50.798;6.430;2022-12-07T00:16:39;100383.09;;;6.25;75.40
19286;BME280;9776;50.798;6.430;2022-12-07T00:19:05;100373.56;;;6.24;75.67
19286;BME280;9776;50.798;6.430;2022-12-07T00:21:34;100380.72;;;6.22;75.79
19286;BME280;9776;50.798;6.430;2022-12-07T00:24:02;100372.94;;;6.20;75.77
19286;BME280;9776;50.798;6.430;2022-12-07T00:26:31;100367.72;;;6.20;75.69
19286;BME280;9776;50.798;6.430;2022-12-07T00:29:01;100369.16;;;6.24;75.83
19286;BME280;9776;50.798;6.430;2022-12-07T00:31:29;100370.00;;;6.25;75.92
19286;BME280;9776;50.798;6.430;2022-12-07T00:33:58;100365.22;;;6.30;75.83
19286;BME280;9776;50.798;6.430;2022-12-07T00:36:25;100369.03;;;6.37;75.76
19286;BME280;9776;50.798;6.430;2022-12-07T00:38:52;100367.09;;;6.39;75.56
19286;BME280;9776;50.798;6.430;2022-12-07T00:41:20;100358.78;;;6.34;75.78
19286;BME280;9776;50.798;6.430;2022-12-07T00:43:49;100357.09;;;6.33;75.82
19286;BME280;9776;50.798;6.430;2022-12-07T00:46:18;100350.19;;;6.32;75.95
19286;BME280;9776;50.798;6.430;2022-12-07T00:48:46;100358.31;;;6.29;76.07
19286;BME280;9776;50.798;6.430;2022-12-07T00:51:15;100364.25;;;6.31;75.90
19286;BME280;9776;50.798;6.430;2022-12-07T00:53:42;100363.28;;;6.32;75.89
19286;BME280;9776;50.798;6.430;2022-12-07T00:56:11;100350.91;;;6.34;76.09
19286;BME280;9776;50.798;6.430;2022-12-07T00:58:38;100351.50;;;6.38;75.92
19286;BME280;9776;50.798;6.430;2022-12-07T01:01:06;100349.00;;;6.36;76.06
19286;BME280;9776;50.798;6.430;2022-12-07T01:03:35;100354.25;;;6.36;75.92
19286;BME280;9776;50.798;6.430;2022-12-07T01:06:02;100358.78;;;6.34;76.16
19286;BME280;9776;50.798;6.430;2022-12-07T01:08:29;100351.88;;;6.33;76.25
19286;BME280;9776;50.798;6.430;2022-12-07T01:11:00;100356.75;;;6.38;76.11
19286;BME280;9776;50.798;6.430;2022-12-07T01:13:27;100364.03;;;6.34;76.24
19286;BME280;9776;50.798;6.430;2022-12-07T01:15:57;100357.47;;;6.28;76.33
19286;BME280;9776;50.798;6.430;2022-12-07T01:18:25;100359.59;;;6.23;76.39
19286;BME280;9776;50.798;6.430;2022-12-07T01:21:00;100357.38;;;6.19;76.48
19286;BME280;9776;50.798;6.430;2022-12-07T01:23:28;100360.59;;;6.22;76.52
19286;BME280;9776;50.798;6.430;2022-12-07T01:25:56;100354.13;;;6.26;76.28
19286;BME280;9776;50.798;6.430;2022-12-07T01:28:23;100356.28;;;6.21;76.53
19286;BME280;9776;50.798;6.430;2022-12-07T01:30:58;100361.19;;;6.26;76.27
19286;BME280;9776;50.798;6.430;2022-12-07T01:33:27;100357.34;;;6.30;76.31
19286;BME280;9776;50.798;6.430;2022-12-07T01:35:54;100352.94;;;6.31;76.30
19286;BME280;9776;50.798;6.430;2022-12-07T01:38:22;100364.03;;;6.34;76.16
19286;BME280;9776;50.798;6.430;2022-12-07T01:40:54;100366.75;;;6.33;76.47
19286;BME280;9776;50.798;6.430;2022-12-07T01:43:22;100365.09;;;6.32;76.41
19286;BME280;9776;50.798;6.430;2022-12-07T01:45:50;100367.84;;;6.30;76.29
19286;BME280;9776;50.798;6.430;2022-12-07T01:48:20;100368.66;;;6.31;76.27
19286;BME280;9776;50.798;6.430;2022-12-07T01:50:50;100359.97;;;6.30;76.43
19286;BME280;9776;50.798;6.430;2022-12-07T01:53:19;100359.50;;;6.25;76.43
19286;BME280;9776;50.798;6.430;2022-12-07T01:55:49;100365.94;;;6.21;76.64
19286;BME280;9776;50.798;6.430;2022-12-07T01:58:18;100357.59;;;6.16;76.74
19286;BME280;9776;50.798;6.430;2022-12-07T02:00:46;100355.94;;;6.15;76.80
19286;BME280;9776;50.798;6.430;2022-12-07T02:03:15;100358.31;;;6.18;76.75
19286;BME280;9776;50.798;6.430;2022-12-07T02:05:46;100356.53;;;6.18;76.71
19286;BME280;9776;50.798;6.430;2022-12-07T02:08:14;100357.59;;;6.16;76.87
19286;BME280;9776;50.798;6.430;2022-12-07T02:10:41;100353.44;;;6.13;76.83
19286;BME280;9776;50.798;6.430;2022-12-07T02:13:12;100348.78;;;6.17;76.75
19286;BME280;9776;50.798;6.430;2022-12-07T02:15:56;100351.41;;;6.17;76.49
19286;BME280;9776;50.798;6.430;2022-12-07T02:18:35;100342.25;;;6.22;76.47
19286;BME280;9776;50.798;6.430;2022-12-07T02:21:07;100342.09;;;6.24;76.44
19286;BME280;9776;50.798;6.430;2022-12-07T02:23:51;100337.09;;;6.21;76.47
19286;BME280;9776;50.798;6.430;2022-12-07T02:29:39;100346.28;;;6.15;76.73
19286;BME280;9776;50.798;6.430;2022-12-07T02:32:12;100338.41;;;6.15;76.64
19286;BME280;9776;50.798;6.430;2022-12-07T02:34:47;100337.25;;;6.19;76.63
19286;BME280;9776;50.798;6.430;2022-12-07T02:37:22;100341.41;;;6.22;76.73
19286;BME280;9776;50.798;6.430;2022-12-07T02:39:55;100345.69;;;6.23;76.78
19286;BME280;9776;50.798;6.430;2022-12-07T02:42:28;100339.38;;;6.25;76.61
19286;BME280;9776;50.798;6.430;2022-12-07T02:44:59;100338.16;;;6.29;76.62
19286;BME280;9776;50.798;6.430;2022-12-07T02:47:29;100330.28;;;6.29;76.50
19286;BME280;9776;50.798;6.430;2022-12-07T02:49:56;100343.53;;;6.28;76.62
19286;BME280;9776;50.798;6.430;2022-12-07T02:52:23;100338.28;;;6.28;76.78
19286;BME280;9776;50.798;6.430;2022-12-07T02:54:49;100335.91;;;6.25;76.79
19286;BME280;9776;50.798;6.430;2022-12-07T02:57:35;100325.53;;;6.23;77.04
19286;BME280;9776;50.798;6.430;2022-12-07T03:00:09;100337.94;;;6.21;76.91
19286;BME280;9776;50.798;6.430;2022-12-07T03:02:50;100332.09;;;6.18;77.03
19286;BME280;9776;50.798;6.430;2022-12-07T03:05:43;100334.16;;;6.14;76.90
19286;BME280;9776;50.798;6.430;2022-12-07T03:08:21;100337.09;;;6.21;76.89
19286;BME280;9776;50.798;6.430;2022-12-07T03:10:55;100330.69;;;6.25;76.86
19286;BME280;9776;50.798;6.430;2022-12-07T03:13:27;100334.97;;;6.26;76.82
19286;BME280;9776;50.798;6.430;2022-12-07T03:16:00;100335.22;;;6.23;77.05
19286;BME280;9776;50.798;6.430;2022-12-07T03:18:31;100337.94;;;6.21;77.20
19286;BME280;9776;50.798;6.430;2022-12-07T03:21:03;100331.84;;;6.21;77.12
19286;BME280;9776;50.798;6.430;2022-12-07T03:23:32;100338.19;;;6.18;77.07
19286;BME280;9776;50.798;6.430;2022-12-07T03:26:02;100335.09;;;6.13;77.23
19286;BME280;9776;50.798;6.430;2022-12-07T03:28:36;100342.13;;;6.13;77.47
19286;BME280;9776;50.798;6.430;2022-12-07T03:31:11;100339.75;;;6.10;77.32
19286;BME280;9776;50.798;6.430;2022-12-07T03:33:44;100341.41;;;6.11;77.47
19286;BME280;9776;50.798;6.430;2022-12-07T03:36:19;100343.06;;;6.12;77.35
19286;BME280;9776;50.798;6.430;2022-12-07T03:38:51;100333.41;;;6.12;77.25
19286;BME280;9776;50.798;6.430;2022-12-07T03:41:23;100337.47;;;6.16;77.27
19286;BME280;9776;50.798;6.430;2022-12-07T03:43:51;100335.81;;;6.15;77.38
19286;BME280;9776;50.798;6.430;2022-12-07T03:46:25;100339.25;;;6.16;77.11
19286;BME280;9776;50.798;6.430;2022-12-07T03:49:00;100343.66;;;6.15;77.15
19286;BME280;9776;50.798;6.430;2022-12-07T03:51:36;100338.41;;;6.15;77.38
19286;BME280;9776;50.798;6.430;2022-12-07T03:54:10;100323.53;;;6.16;77.25
19286;BME280;9776;50.798;6.430;2022-12-07T03:56:41;100332.34;;;6.15;77.23
19286;BME280;9776;50.798;6.430;2022-12-07T03:59:09;100336.63;;;6.16;77.38
19286;BME280;9776;50.798;6.430;2022-12-07T04:01:41;100334.97;;;6.15;77.22
19286;BME280;9776;50.798;6.430;2022-12-07T04:04:08;100335.34;;;6.10;77.49
19286;BME280;9776;50.798;6.430;2022-12-07T04:06:34;100340.72;;;6.09;77.50
19286;BME280;9776;50.798;6.430;2022-12-07T04:09:01;100336.66;;;6.05;77.55
19286;BME280;9776;50.798;6.430;2022-12-07T04:11:28;100333.56;;;6.00;77.69
19286;BME280;9776;50.798;6.430;2022-12-07T04:13:55;100331.06;;;5.98;77.64
19286;BME280;9776;50.798;6.430;2022-12-07T04:16:41;100325.13;;;5.96;77.56
19286;BME280;9776;50.798;6.430;2022-12-07T04:19:07;100331.53;;;5.92;77.76
19286;BME280;9776;50.798;6.430;2022-12-07T04:21:34;100328.81;;;5.94;77.93
19286;BME280;9776;50.798;6.430;2022-12-07T04:24:01;100328.66;;;5.95;77.77
19286;BME280;9776;50.798;6.430;2022-12-07T04:26:27;100326.88;;;5.96;77.65
19286;BME280;9776;50.798;6.430;2022-12-07T04:28:54;100330.00;;;5.90;77.70
19286;BME280;9776;50.798;6.430;2022-12-07T04:31:21;100332.59;;;5.90;77.75
19286;BME280;9776;50.798;6.430;2022-12-07T04:33:49;100334.28;;;5.91;77.73
19286;BME280;9776;50.798;6.430;2022-12-07T04:36:16;100335.47;;;5.87;77.77
19286;BME280;9776;50.798;6.430;2022-12-07T04:38:45;100331.78;;;5.89;77.89
19286;BME280;9776;50.798;6.430;2022-12-07T04:41:11;100320.22;;;5.92;77.81
19286;BME280;9776;50.798;6.430;2022-12-07T04:43:38;100326.66;;;5.88;77.84
19286;BME280;9776;50.798;6.430;2022-12-07T04:46:05;100322.38;;;5.87;77.83
19286;BME280;9776;50.798;6.430;2022-12-07T04:48:32;100333.03;;;5.84;78.00
19286;BME280;9776;50.798;6.430;2022-12-07T04:51:01;100324.25;;;5.85;77.74
19286;BME280;9776;50.798;6.430;2022-12-07T04:53:28;100322.50;;;5.85;77.85
19286;BME280;9776;50.798;6.430;2022-12-07T04:55:55;100328.22;;;5.90;77.75
19286;BME280;9776;50.798;6.430;2022-12-07T04:58:21;100323.81;;;5.91;77.91
19286;BME280;9776;50.798;6.430;2022-12-07T05:00:48;100326.06;;;5.95;77.95
19286;BME280;9776;50.798;6.430;2022-12-07T05:03:15;100319.63;;;5.99;77.64
19286;BME280;9776;50.798;6.430;2022-12-07T05:05:42;100315.34;;;5.98;77.55
19286;BME280;9776;50.798;6.430;2022-12-07T05:08:10;100323.34;;;5.97;77.60
19286;BME280;9776;50.798;6.430;2022-12-07T05:10:36;100317.50;;;5.93;77.83
19286;BME280;9776;50.798;6.430;2022-12-07T05:13:03;100316.88;;;5.90;77.73
19286;BME280;9776;50.798;6.430;2022-12-07T05:15:30;100313.56;;;5.88;77.89
19286;BME280;9776;50.798;6.430;2022-12-07T05:17:57;100323.66;;;5.81;77.75
19286;BME280;9776;50.798;6.430;2022-12-07T05:20:24;100320.56;;;5.76;78.00
19286;BME280;9776;50.798;6.430;2022-12-07T05:22:50;100324.59;;;5.69;78.09
19286;BME280;9776;50.798;6.430;2022-12-07T05:25:19;100325.66;;;5.66;78.15
19286;BME280;9776;50.798;6.430;2022-12-07T05:27:45;100320.91;;;5.60;78.38
19286;BME280;9776;50.798;6.430;2022-12-07T05:32:39;100325.81;;;5.65;78.42
19286;BME280;9776;50.798;6.430;2022-12-07T05:35:06;100328.28;;;5.66;78.41
19286;BME280;9776;50.798;6.430;2022-12-07T05:37:33;100324.03;;;5.65;78.31
19286;BME280;9776;50.798;6.430;2022-12-07T05:40:00;100324.13;;;5.64;78.46
19286;BME280;9776;50.798;6.430;2022-12-07T05:42:28;100321.63;;;5.62;78.33
19286;BME280;9776;50.798;6.430;2022-12-07T05:44:55;100329.72;;;5.59;78.47
19286;BME280;9776;50.798;6.430;2022-12-07T05:47:21;100321.63;;;5.62;78.41
19286;BME280;9776;50.798;6.430;2022-12-07T05:49:48;100321.50;;;5.64;78.38
19286;BME280;9776;50.798;6.430;2022-12-07T05:52:15;100317.94;;;5.65;78.47
19286;BME280;9776;50.798;6.430;2022-12-07T05:54:42;100317.09;;;5.64;78.25
19286;BME280;9776;50.798;6.430;2022-12-07T05:57:08;100329.25;;;5.65;78.33
19286;BME280;9776;50.798;6.430;2022-12-07T05:59:36;100322.44;;;5.63;78.38
19286;BME280;9776;50.798;6.430;2022-12-07T06:02:04;100320.44;;;5.66;78.35
19286;BME280;9776;50.798;6.430;2022-12-07T06:04:33;100320.19;;;5.69;78.25
19286;BME280;9776;50.798;6.430;2022-12-07T06:07:01;100327.94;;;5.71;78.36
19286;BME280;9776;50.798;6.430;2022-12-07T06:09:28;100319.03;;;5.73;78.40
19286;BME280;9776;50.798;6.430;2022-12-07T06:11:56;100321.41;;;5.77;78.21
19286;BME280;9776;50.798;6.430;2022-12-07T06:14:42;100319.47;;;5.79;78.28
19286;BME280;9776;50.798;6.430;2022-12-07T06:17:09;100324.25;;;5.73;78.28
19286;BME280;9776;50.798;6.430;2022-12-07T06:19:35;100326.88;;;5.73;78.38
19286;BME280;9776;50.798;6.430;2022-12-07T06:22:02;100323.03;;;5.78;78.34
19286;BME280;9776;50.798;6.430;2022-12-07T06:24:30;100319.25;;;5.82;78.33
19286;BME280;9776;50.798;6.430;2022-12-07T06:26:58;100313.66;;;5.86;78.15
19286;BME280;9776;50.798;6.430;2022-12-07T06:29:25;100325.00;;;5.87;78.15
19286;BME280;9776;50.798;6.430;2022-12-07T06:31:53;100308.53;;;5.85;78.23
19286;BME280;9776;50.798;6.430;2022-12-07T06:34:21;100321.03;;;5.81;78.45
19286;BME280;9776;50.798;6.430;2022-12-07T06:36:49;100320.19;;;5.81;78.37
19286;BME280;9776;50.798;6.430;2022-12-07T06:39:17;100329.81;;;5.80;78.50
19286;BME280;9776;50.798;6.430;2022-12-07T06:41:44;100335.66;;;5.84;78.32
19286;BME280;9776;50.798;6.430;2022-12-07T06:44:11;100321.63;;;5.85;78.31
19286;BME280;9776;50.798;6.430;2022-12-07T06:46:38;100324.34;;;5.83;78.33
19286;BME280;9776;50.798;6.430;2022-12-07T06:49:06;100330.22;;;5.87;78.19
19286;BME280;9776;50.798;6.430;2022-12-07T06:51:33;100330.44;;;5.84;78.30
19286;BME280;9776;50.798;6.430;2022-12-07T06:54:02;100335.81;;;5.82;78.31
19286;BME280;9776;50.798;6.430;2022-12-07T06:56:28;100339.75;;;5.88;78.34
19286;BME280;9776;50.798;6.430;2022-12-07T06:58:55;100334.63;;;5.86;78.21
19286;BME280;9776;50.798;6.430;2022-12-07T07:01:22;100331.91;;;5.88;78.17
19286;BME280;9776;50.798;6.430;2022-12-07T07:03:49;100336.19;;;5.89;78.13
19286;BME280;9776;50.798;6.430;2022-12-07T07:06:17;100334.53;;;5.88;78.25
19286;BME280;9776;50.798;6.430;2022-12-07T07:08:44;100335.81;;;5.82;78.38
19286;BME280;9776;50.798;6.430;2022-12-07T07:11:11;100336.03;;;5.79;78.48
19286;BME280;9776;50.798;6.430;2022-12-07T07:13:38;100330.19;;;5.76;78.36
19286;BME280;9776;50.798;6.430;2022-12-07T07:16:06;100331.28;;;5.73;78.36
19286;BME280;9776;50.798;6.430;2022-12-07T07:18:33;100336.63;;;5.71;78.53
19286;BME280;9776;50.798;6.430;2022-12-07T07:21:00;100330.91;;;5.66;78.60
19286;BME280;9776;50.798;6.430;2022-12-07T07:23:28;100339.22;;;5.71;78.48
19286;BME280;9776;50.798;6.430;2022-12-07T07:25:55;100339.38;;;5.70;78.29
19286;BME280;9776;50.798;6.430;2022-12-07T07:28:22;100345.53;;;5.69;78.30
19286;BME280;9776;50.798;6.430;2022-12-07T07:30:49;100351.16;;;5.64;78.49
19286;BME280;9776;50.798;6.430;2022-12-07T07:33:16;100349.84;;;5.59;78.68
19286;BME280;9776;50.798;6.430;2022-12-07T07:35:43;100334.22;;;5.57;78.75
19286;BME280;9776;50.798;6.430;2022-12-07T07:38:09;100337.44;;;5.61;78.59
19286;BME280;9776;50.798;6.430;2022-12-07T07:40:38;100342.22;;;5.67;78.54
19286;BME280;9776;50.798;6.430;2022-12-07T07:43:04;100341.97;;;5.70;78.51
19286;BME280;9776;50.798;6.430;2022-12-07T07:45:31;100350.69;;;5.82;78.26
19286;BME280;9776;50.798;6.430;2022-12-07T07:47:58;100347.25;;;5.92;77.96
19286;BME280;9776;50.798;6.430;2022-12-07T07:50:24;100349.63;;;5.95;77.99
19286;BME280;9776;50.798;6.430;2022-12-07T07:52:51;100353.00;;;5.97;77.81
19286;BME280;9776;50.798;6.430;2022-12-07T07:55:18;100355.25;;;6.02;77.83
19286;BME280;9776;50.798;6.430;2022-12-07T07:57:46;100349.75;;;6.05;77.76
19286;BME280;9776;50.798;6.430;2022-12-07T08:00:14;100349.41;;;5.98;77.73
19286;BME280;9776;50.798;6.430;2022-12-07T08:02:42;100346.41;;;5.92;78.02
19286;BME280;9776;50.798;6.430;2022-12-07T08:05:10;100357.16;;;5.89;78.04
19286;BME280;9776;50.798;6.430;2022-12-07T08:07:37;100356.66;;;5.95;77.91
19286;BME280;9776;50.798;6.430;2022-12-07T08:10:04;100355.59;;;5.97;77.96
19286;BME280;9776;50.798;6.430;2022-12-07T08:12:35;100351.06;;;5.99;77.60
19286;BME280;9776;50.798;6.430;2022-12-07T08:15:05;100356.06;;;6.02;77.66
19286;BME280;9776;50.798;6.430;2022-12-07T08:17:32;100353.69;;;6.10;77.68
19286;BME280;9776;50.798;6.430;2022-12-07T08:19:59;100345.94;;;6.20;77.45
19286;BME280;9776;50.798;6.430;2022-12-07T08:22:26;100357.94;;;6.34;77.15
19286;BME280;9776;50.798;6.430;2022-12-07T08:24:53;100351.72;;;6.46;77.00
19286;BME280;9776;50.798;6.430;2022-12-07T08:27:19;100348.72;;;6.50;76.97
19286;BME280;9776;50.798;6.430;2022-12-07T08:29:49;100352.88;;;6.53;76.76
19286;BME280;9776;50.798;6.430;2022-12-07T08:32:17;100358.88;;;6.55;76.84
19286;BME280;9776;50.798;6.430;2022-12-07T08:34:43;100351.34;;;6.50;76.80
19286;BME280;9776;50.798;6.430;2022-12-07T08:37:11;100354.66;;;6.52;76.81
19286;BME280;9776;50.798;6.430;2022-12-07T08:39:37;100356.34;;;6.53;76.80
19286;BME280;9776;50.798;6.430;2022-12-07T08:42:04;100358.97;;;6.53;76.93
19286;BME280;9776;50.798;6.430;2022-12-07T08:44:31;100355.84;;;6.59;76.60
19286;BME280;9776;50.798;6.430;2022-12-07T08:47:00;100358.22;;;6.62;76.61
19286;BME280;9776;50.798;6.430;2022-12-07T08:49:32;100356.56;;;6.61;76.54
19286;BME280;9776;50.798;6.430;2022-12-07T08:51:59;100361.25;;;6.58;76.47
19286;BME280;9776;50.798;6.430;2022-12-07T08:54:27;100357.28;;;6.52;76.56
19286;BME280;9776;50.798;6.430;2022-12-07T08:56:55;100356.47;;;6.41;76.76
19286;BME280;9776;50.798;6.430;2022-12-07T08:59:22;100360.19;;;6.38;76.97
19286;BME280;9776;50.798;6.430;2022-12-07T09:01:49;100357.47;;;6.40;76.71
19286;BME280;9776;50.798;6.430;2022-12-07T09:04:16;100358.28;;;6.40;76.64
19286;BME280;9776;50.798;6.430;2022-12-07T09:06:44;100357.56;;;6.38;76.38
19286;BME280;9776;50.798;6.430;2022-12-07T09:09:11;100361.50;;;6.33;76.69
19286;BME280;9776;50.798;6.430;2022-12-07T09:11:40;100362.09;;;6.36;76.52
19286;BME280;9776;50.798;6.430;2022-12-07T09:14:07;100362.47;;;6.43;76.48
19286;BME280;9776;50.798;6.430;2022-12-07T09:16:34;100359.59;;;6.46;76.27
19286;BME280;9776;50.798;6.430;2022-12-07T09:19:01;100358.88;;;6.55;76.11
19286;BME280;9776;50.798;6.430;2022-12-07T09:21:28;100369.22;;;6.56;75.86
19286;BME280;9776;50.798;6.430;2022-12-07T09:23:56;100361.47;;;6.55;75.64
19286;BME280;9776;50.798;6.430;2022-12-07T09:26:23;100361.72;;;6.52;75.88
19286;BME280;9776;50.798;6.430;2022-12-07T09:28:49;100368.59;;;6.64;75.75
19286;BME280;9776;50.798;6.430;2022-12-07T09:31:16;100364.28;;;6.74;75.42
19286;BME280;9776;50.798;6.430;2022-12-07T09:33:43;100364.13;;;6.75;75.32
19286;BME280;9776;50.798;6.430;2022-12-07T09:36:10;100364.50;;;6.82;75.00
19286;BME280;9776;50.798;6.430;2022-12-07T09:38:37;100358.78;;;6.77;75.00
19286;BME280;9776;50.798;6.430;2022-12-07T09:41:06;100365.13;;;6.74;75.14
19286;BME280;9776;50.798;6.430;2022-12-07T09:43:34;100359.50;;;6.79;75.04
19286;BME280;9776;50.798;6.430;2022-12-07T09:46:03;100366.88;;;6.85;74.75
19286;BME280;9776;50.798;6.430;2022-12-07T09:48:31;100360.66;;;6.86;74.53
19286;BME280;9776;50.798;6.430;2022-12-07T09:51:00;100354.50;;;6.76;74.73
19286;BME280;9776;50.798;6.430;2022-12-07T09:53:29;100361.31;;;6.67;75.00
19286;BME280;9776;50.798;6.430;2022-12-07T09:55:57;100358.22;;;6.62;75.04
19286;BME280;9776;50.798;6.430;2022-12-07T09:58:26;100355.72;;;6.72;74.64
19286;BME280;9776;50.798;6.430;2022-12-07T10:00:57;100356.88;;;6.79;74.57
19286;BME280;9776;50.798;6.430;2022-12-07T10:03:27;100352.31;;;6.92;74.07
19286;BME280;9776;50.798;6.430;2022-12-07T10:05:55;100347.38;;;6.99;73.75
19286;BME280;9776;50.798;6.430;2022-12-07T10:08:24;100340.91;;;7.03;73.80
19286;BME280;9776;50.798;6.430;2022-12-07T10:10:53;100348.78;;;7.03;73.55
19286;BME280;9776;50.798;6.430;2022-12-07T10:13:22;100341.69;;;7.14;73.52
19286;BME280;9776;50.798;6.430;2022-12-07T10:16:01;100347.47;;;7.29;73.17
19286;BME280;9776;50.798;6.430;2022-12-07T10:18:29;100345.69;;;7.29;72.94
19286;BME280;9776;50.798;6.430;2022-12-07T10:21:02;100346.63;;;7.28;72.91
19286;BME280;9776;50.798;6.430;2022-12-07T10:23:29;100343.16;;;7.28;72.96
19286;BME280;9776;50.798;6.430;2022-12-07T10:25:56;100338.38;;;7.33;72.96
19286;BME280;9776;50.798;6.430;2022-12-07T10:28:23;100342.22;;;7.29;72.98
19286;BME280;9776;50.798;6.430;2022-12-07T10:30:52;100337.16;;;7.37;72.65
19286;BME280;9776;50.798;6.430;2022-12-07T10:33:35;100326.47;;;7.29;72.42
19286;BME280;9776;50.798;6.430;2022-12-07T10:36:18;100324.53;;;7.31;72.46
19286;BME280;9776;50.798;6.430;2022-12-07T10:38:47;100323.06;;;7.38;72.48
19286;BME280;9776;50.798;6.430;2022-12-07T10:41:15;100314.94;;;7.41;72.29
19286;BME280;9776;50.798;6.430;2022-12-07T10:43:50;100319.72;;;7.36;72.22
19286;BME280;9776;50.798;6.430;2022-12-07T10:46:38;100319.72;;;7.36;72.34
19286;BME280;9776;50.798;6.430;2022-12-07T10:52:16;100319.78;;;7.25;72.45
19286;BME280;9776;50.798;6.430;2022-12-07T10:54:48;100315.38;;;7.25;72.51
19286;BME280;9776;50.798;6.430;2022-12-07T10:57:31;100312.16;;;7.22;72.53
19286;BME280;9776;50.798;6.430;2022-12-07T11:00:04;100307.25;;;7.28;72.33
19286;BME280;9776;50.798;6.430;2022-12-07T11:02:43;100300.06;;;7.30;72.22
19286;BME280;9776;50.798;6.430;2022-12-07T11:05:19;100293.19;;;7.39;72.24
19286;BME280;9776;50.798;6.430;2022-12-07T11:08:00;100302.25;;;7.46;71.77
19286;BME280;9776;50.798;6.430;2022-12-07T11:10:37;100287.09;;;7.59;71.65
19286;BME280;9776;50.798;6.430;2022-12-07T11:13:22;100283.31;;;7.82;71.20
19286;BME280;9776;50.798;6.430;2022-12-07T11:16:00;100287.66;;;8.62;69.54
19286;BME280;9776;50.798;6.430;2022-12-07T11:18:32;100282.66;;;9.06;68.32
19286;BME280;9776;50.798;6.430;2022-12-07T11:21:08;100275.97;;;9.22;68.12
19286;BME280;9776;50.798;6.430;2022-12-07T11:23:46;100278.34;;;9.61;67.33
19286;BME280;9776;50.798;6.430;2022-12-07T11:26:25;100273.84;;;10.36;65.94
19286;BME280;9776;50.798;6.430;2022-12-07T11:29:06;100271.34;;;10.87;64.70
19286;BME280;9776;50.798;6.430;2022-12-07T11:31:52;100256.44;;;11.21;63.71
19286;BME280;9776;50.798;6.430;2022-12-07T11:34:27;100263.41;;;11.82;62.26
19286;BME280;9776;50.798;6.430;2022-12-07T11:37:01;100258.50;;;12.69;60.18
19286;BME280;9776;50.798;6.430;2022-12-07T11:39:34;100259.78;;;13.46;58.19
19286;BME280;9776;50.798;6.430;2022-12-07T11:42:06;100257.16;;;13.30;58.27
19286;BME280;9776;50.798;6.430;2022-12-07T11:44:38;100251.88;;;13.14;58.67
19286;BME280;9776;50.798;6.430;2022-12-07T11:47:09;100251.19;;;13.28;57.94
19286;BME280;9776;50.798;6.430;2022-12-07T11:49:43;100255.69;;;12.95;58.40
19286;BME280;9776;50.798;6.430;2022-12-07T11:52:18;100246.72;;;12.47;58.96
19286;BME280;9776;50.798;6.430;2022-12-07T11:54:49;100240.63;;;12.63;58.83
19286;BME280;9776;50.798;6.430;2022-12-07T11:57:24;100244.38;;;13.41;56.67
19286;BME280;9776;50.798;6.430;2022-12-07T11:59:59;100239.94;;;12.93;57.13
19286;BME280;9776;50.798;6.430;2022-12-07T12:02:32;100241.88;;;12.27;58.32
19286;BME280;9776;50.798;6.430;2022-12-07T12:05:07;100228.94;;;11.66;59.64
19286;BME280;9776;50.798;6.430;2022-12-07T12:07:41;100234.09;;;11.16;60.31
19286;BME280;9776;50.798;6.430;2022-12-07T12:10:18;100231.53;;;10.80;60.97
19286;BME280;9776;50.798;6.430;2022-12-07T12:12:59;100233.66;;;10.59;61.41
19286;BME280;9776;50.798;6.430;2022-12-07T12:15:42;100234.06;;;10.47;61.64
19286;BME280;9776;50.798;6.430;2022-12-07T12:18:24;100237.41;;;10.39;61.46
19286;BME280;9776;50.798;6.430;2022-12-07T12:20:56;100224.63;;;10.44;61.42
19286;BME280;9776;50.798;6.430;2022-12-07T12:23:29;100225.13;;;10.65;60.68
19286;BME280;9776;50.798;6.430;2022-12-07T12:26:05;100216.78;;;10.70;60.46
19286;BME280;9776;50.798;6.430;2022-12-07T12:28:37;100212.75;;;10.66;60.38
19286;BME280;9776;50.798;6.430;2022-12-07T12:31:09;100211.25;;;10.63;60.54
19286;BME280;9776;50.798;6.430;2022-12-07T12:33:38;100214.13;;;10.70;60.21
19286;BME280;9776;50.798;6.430;2022-12-07T12:36:23;100205.44;;;10.60;60.15
19286;BME280;9776;50.798;6.430;2022-12-07T12:39:08;100214.56;;;10.48;60.36
19286;BME280;9776;50.798;6.430;2022-12-07T12:41:57;100213.47;;;10.15;60.94
19286;BME280;9776;50.798;6.430;2022-12-07T12:50:27;100208.19;;;10.15;60.75
19286;BME280;9776;50.798;6.430;2022-12-07T12:53:15;100202.31;;;9.94;61.01
19286;BME280;9776;50.798;6.430;2022-12-07T12:55:58;100201.47;;;9.93;61.10
19286;BME280;9776;50.798;6.430;2022-12-07T12:58:38;100197.34;;;9.91;61.42
19286;BME280;9776;50.798;6.430;2022-12-07T13:01:38;100198.59;;;9.69;61.49
19286;BME280;9776;50.798;6.430;2022-12-07T13:04:23;100191.31;;;9.53;61.94
19286;BME280;9776;50.798;6.430;2022-12-07T13:06:51;100194.91;;;9.52;61.88
19286;BME280;9776;50.798;6.430;2022-12-07T13:09:21;100187.44;;;9.48;62.07
19286;BME280;9776;50.798;6.430;2022-12-07T13:11:50;100193.28;;;9.42;62.19
19286;BME280;9776;50.798;6.430;2022-12-07T13:14:57;100186.13;;;9.34;62.46
19286;BME280;9776;50.798;6.430;2022-12-07T13:17:59;100178.97;;;9.54;61.92
19286;BME280;9776;50.798;6.430;2022-12-07T13:20:46;100189.44;;;10.08;61.00
19286;BME280;9776;50.798;6.430;2022-12-07T13:23:17;100175.59;;;10.59;59.77
19286;BME280;9776;50.798;6.430;2022-12-07T13:28:48;100177.53;;;11.01;58.90
19286;BME280;9776;50.798;6.430;2022-12-07T13:31:23;100164.44;;;10.91;59.02
19286;BME280;9776;50.798;6.430;2022-12-07T13:33:52;100164.13;;;10.68;59.54
19286;BME280;9776;50.798;6.430;2022-12-07T13:36:22;100168.81;;;10.39;60.22
19286;BME280;9776;50.798;6.430;2022-12-07T13:38:54;100166.88;;;10.23;60.44
19286;BME280;9776;50.798;6.430;2022-12-07T13:41:22;100169.78;;;10.03;60.90
19286;BME280;9776;50.798;6.430;2022-12-07T13:43:52;100165.75;;;9.63;61.67
19286;BME280;9776;50.798;6.430;2022-12-07T13:46:25;100160.00;;;9.41;62.21